createdAt,value
2018-04-10T00:00:01.498Z,61.6
2018-04-10T00:01:01.477Z,61.57
2018-04-10T00:02:01.460Z,62.14
2018-04-10T00:03:01.438Z,62.17
2018-04-10T00:04:01.420Z,62.62
2018-04-10T00:05:01.408Z,62.23
2018-04-10T00:06:01.381Z,62.43
2018-04-10T00:07:01.414Z,62.14
2018-04-10T00:08:01.342Z,62.23
2018-04-10T00:09:01.078Z,62.23
2018-04-10T00:10:01.306Z,62.07
2018-04-10T00:11:01.288Z,62.23
2018-04-10T00:12:01.265Z,62.52
2018-04-10T00:13:01.248Z,62.43
2018-04-10T00:14:01.229Z,62.26
2018-04-10T00:15:01.208Z,63
2018-04-10T00:16:01.188Z,62.84
2018-04-10T00:17:01.172Z,63.03
2018-04-10T00:18:01.156Z,63.03
2018-04-10T00:19:01.236Z,62.84
2018-04-10T00:20:01.118Z,63.13
2018-04-10T00:21:01.095Z,62.84
2018-04-10T00:22:01.081Z,63.03
2018-04-10T00:23:01.059Z,63.13
2018-04-10T00:24:01.092Z,63.1
2018-04-10T00:25:01.017Z,62.93
2018-04-10T00:26:01.000Z,63.29
2018-04-10T00:27:00.982Z,63.19
2018-04-10T00:28:00.963Z,63.57
2018-04-10T00:29:00.946Z,63.57
2018-04-10T00:30:00.929Z,64.25
2018-04-10T00:31:00.908Z,63.29
2018-04-10T00:32:00.893Z,63.39
2018-04-10T00:33:00.876Z,63.76
2018-04-10T00:34:00.599Z,63.96
2018-04-10T00:35:00.828Z,63.86
2018-04-10T00:36:00.805Z,63.57
2018-04-10T00:37:00.792Z,64.34
2018-04-10T00:38:00.769Z,64.63
2018-04-10T00:39:00.752Z,64.72
2018-04-10T00:40:00.733Z,64.63
2018-04-10T00:41:00.710Z,64.53
2018-04-10T00:42:00.696Z,64.34
2018-04-10T00:43:00.677Z,64.82
2018-04-10T00:44:00.409Z,64.82
2018-04-10T00:45:00.634Z,65.01
2018-04-10T00:46:00.614Z,64.82
2018-04-10T00:47:00.595Z,64.92
2018-04-10T00:48:00.582Z,64.92
2018-04-10T00:49:00.313Z,65.2
2018-04-10T00:50:00.538Z,65.39
2018-04-10T00:51:00.518Z,65.78
2018-04-10T00:52:00.501Z,65.58
2018-04-10T00:53:00.481Z,65.49
2018-04-10T00:54:00.468Z,65.39
2018-04-10T00:55:00.448Z,65.97
2018-04-10T00:56:00.423Z,65.49
2018-04-10T00:57:00.405Z,65.68
2018-04-10T00:58:00.383Z,66.35
2018-04-10T00:59:00.364Z,65.97
2018-04-10T01:00:00.348Z,66.06
2018-04-10T01:01:00.330Z,66.16
2018-04-10T01:02:00.309Z,66.45
2018-04-10T01:03:00.293Z,66.45
2018-04-10T01:04:00.270Z,66.16
2018-04-10T01:05:00.251Z,66.64
2018-04-10T01:06:00.233Z,66.16
2018-04-10T01:07:00.213Z,66.64
2018-04-10T01:08:00.198Z,66.74
2018-04-10T01:09:00.180Z,66.83
2018-04-10T01:10:00.163Z,66.54
2018-04-10T01:11:00.136Z,67.02
2018-04-10T01:12:00.114Z,66.74
2018-04-10T01:13:00.095Z,67.21
2018-04-10T01:14:00.081Z,67.11
2018-04-10T01:15:00.060Z,67.02
2018-04-10T01:16:00.042Z,67.5
2018-04-10T01:17:00.023Z,67.41
2018-04-10T01:18:00.006Z,67.31
2018-04-10T01:18:59.982Z,67.21
2018-04-10T01:19:59.962Z,67.31
2018-04-10T01:20:59.940Z,67.21
2018-04-10T01:21:59.923Z,67.11
2018-04-10T01:22:59.655Z,67.5
2018-04-10T01:23:59.886Z,67.69
2018-04-10T01:24:59.865Z,67.6
2018-04-10T01:25:59.845Z,67.69
2018-04-10T01:26:59.825Z,68.07
2018-04-10T01:27:59.806Z,67.79
2018-04-10T01:28:59.789Z,67.69
2018-04-10T01:29:59.771Z,67.5
2018-04-10T01:30:59.749Z,67.88
2018-04-10T01:31:59.729Z,68.07
2018-04-10T01:32:59.715Z,68.27
2018-04-10T01:33:59.445Z,68.07
2018-04-10T01:34:59.678Z,68.17
2018-04-10T01:35:59.650Z,67.88
2018-04-10T01:36:59.633Z,68.55
2018-04-10T01:37:59.618Z,68.62
2018-04-10T01:38:59.596Z,68.33
2018-04-10T01:39:59.574Z,68.33
2018-04-10T01:40:59.553Z,68.36
2018-04-10T01:41:59.537Z,68.65
2018-04-10T01:42:59.270Z,68.84
2018-04-10T01:43:59.495Z,68.84
2018-04-10T01:44:59.477Z,68.8
2018-04-10T01:45:59.458Z,68.74
2018-04-10T01:46:59.438Z,68.9
2018-04-10T01:47:59.418Z,69.09
2018-04-10T01:48:59.400Z,69.29
2018-04-10T01:49:59.382Z,69.19
2018-04-10T01:50:59.361Z,69.09
2018-04-10T01:51:59.342Z,69.76
2018-04-10T01:52:59.078Z,69.67
2018-04-10T01:53:59.309Z,69.76
2018-04-10T01:54:59.289Z,69.67
2018-04-10T01:55:59.263Z,69.48
2018-04-10T01:56:59.244Z,69.57
2018-04-10T01:57:59.223Z,69.76
2018-04-10T01:58:58.959Z,69.95
2018-04-10T01:59:59.192Z,69.86
2018-04-10T02:00:59.177Z,70.15
2018-04-10T02:01:58.901Z,69.86
2018-04-10T02:02:59.126Z,69.86
2018-04-10T02:03:59.108Z,70.15
2018-04-10T02:04:59.090Z,70.34
2018-04-10T02:05:59.072Z,70.53
2018-04-10T02:06:59.052Z,70.34
2018-04-10T02:07:59.033Z,70.62
2018-04-10T02:08:59.011Z,70.53
2018-04-10T02:09:58.994Z,70.53
2018-04-10T02:10:58.976Z,70.62
2018-04-10T02:11:58.959Z,70.62
2018-04-10T02:12:58.939Z,70.53
2018-04-10T02:13:58.916Z,70.43
2018-04-10T02:14:58.895Z,71.11
2018-04-10T02:15:58.876Z,70.81
2018-04-10T02:16:58.861Z,70.91
2018-04-10T02:17:58.840Z,70.72
2018-04-10T02:18:58.819Z,70.81
2018-04-10T02:19:58.798Z,70.81
2018-04-10T02:20:58.782Z,70.72
2018-04-10T02:21:58.761Z,71.01
2018-04-10T02:22:58.493Z,70.81
2018-04-10T02:23:58.720Z,70.72
2018-04-10T02:24:58.699Z,70.91
2018-04-10T02:25:58.435Z,71.01
2018-04-10T02:26:58.662Z,71.48
2018-04-10T02:27:58.641Z,71.26
2018-04-10T02:28:58.376Z,71.07
2018-04-10T02:29:58.606Z,71.16
2018-04-10T02:30:58.581Z,71.87
2018-04-10T02:31:58.571Z,71.45
2018-04-10T02:32:58.546Z,71.55
2018-04-10T02:33:58.522Z,71.26
2018-04-10T02:34:58.508Z,71.73
2018-04-10T02:35:58.487Z,72.02
2018-04-10T02:36:58.471Z,71.93
2018-04-10T02:37:58.445Z,72.02
2018-04-10T02:38:58.425Z,72.02
2018-04-10T02:39:58.410Z,71.83
2018-04-10T02:40:58.395Z,71.55
2018-04-10T02:41:58.371Z,72.31
2018-04-10T02:42:58.348Z,71.93
2018-04-10T02:43:58.340Z,72.5
2018-04-10T02:44:58.060Z,72.22
2018-04-10T02:45:58.285Z,72.88
2018-04-10T02:46:58.022Z,72.5
2018-04-10T02:47:58.250Z,72.69
2018-04-10T02:48:58.230Z,72.41
2018-04-10T02:49:58.213Z,72.69
2018-04-10T02:50:58.189Z,72.5
2018-04-10T02:51:58.170Z,72.6
2018-04-10T02:52:58.151Z,72.6
2018-04-10T02:53:58.130Z,72.88
2018-04-10T02:54:58.111Z,72.88
2018-04-10T02:55:58.127Z,72.79
2018-04-10T02:56:58.071Z,72.88
2018-04-10T02:57:58.047Z,73.08
2018-04-10T02:58:58.029Z,73.27
2018-04-10T02:59:58.011Z,73.46
2018-04-10T03:00:57.742Z,73.46
2018-04-10T03:01:57.968Z,73.36
2018-04-10T03:02:57.946Z,73.36
2018-04-10T03:03:57.928Z,73.94
2018-04-10T03:04:57.911Z,73.55
2018-04-10T03:05:57.889Z,73.75
2018-04-10T03:06:57.874Z,73.55
2018-04-10T03:07:57.851Z,74.13
2018-04-10T03:08:57.829Z,73.8
2018-04-10T03:09:57.808Z,73.9
2018-04-10T03:10:57.788Z,74.09
2018-04-10T03:11:57.773Z,74.09
2018-04-10T03:12:57.502Z,73.99
2018-04-10T03:13:57.735Z,74.57
2018-04-10T03:14:57.706Z,74.09
2018-04-10T03:15:57.441Z,74.38
2018-04-10T03:16:57.664Z,74.28
2018-04-10T03:17:57.643Z,74.76
2018-04-10T03:18:57.635Z,74.66
2018-04-10T03:19:57.607Z,74.95
2018-04-10T03:20:57.585Z,74.85
2018-04-10T03:21:57.564Z,74.76
2018-04-10T03:22:57.547Z,74.76
2018-04-10T03:23:57.525Z,75.14
2018-04-10T03:24:57.507Z,74.76
2018-04-10T03:25:57.482Z,75.05
2018-04-10T03:26:57.217Z,75.05
2018-04-10T03:27:57.443Z,75.14
2018-04-10T03:28:57.457Z,75.34
2018-04-10T03:29:57.400Z,75.14
2018-04-10T03:30:57.383Z,75.14
2018-04-10T03:31:57.369Z,75.34
2018-04-10T03:32:57.339Z,75.43
2018-04-10T03:33:57.323Z,75.71
2018-04-10T03:34:57.299Z,75.34
2018-04-10T03:35:57.284Z,76
2018-04-10T03:36:57.260Z,75.81
2018-04-10T03:37:57.241Z,76
2018-04-10T03:38:56.972Z,76.2
2018-04-10T03:39:56.950Z,75.96
2018-04-10T03:40:57.176Z,76.06
2018-04-10T03:41:57.159Z,76.06
2018-04-10T03:42:57.135Z,76.25
2018-04-10T03:43:57.113Z,76.06
2018-04-10T03:44:57.093Z,75.96
2018-04-10T03:45:57.074Z,75.87
2018-04-10T03:46:57.051Z,76.25
2018-04-10T03:47:56.827Z,76.73
2018-04-10T03:48:57.012Z,76.54
2018-04-10T03:49:56.989Z,76.73
2018-04-10T03:50:56.967Z,76.54
2018-04-10T03:51:56.950Z,76.73
2018-04-10T03:52:56.926Z,76.82
2018-04-10T03:53:56.907Z,76.92
2018-04-10T03:54:56.887Z,77.01
2018-04-10T03:55:56.867Z,77.4
2018-04-10T03:56:56.843Z,77.5
2018-04-10T03:57:56.825Z,77.59
2018-04-10T03:58:56.804Z,77.69
2018-04-10T03:59:56.782Z,77.69
2018-04-10T04:00:56.515Z,77.59
2018-04-10T04:01:56.741Z,77.5
2018-04-10T04:02:56.721Z,77.59
2018-04-10T04:03:56.704Z,77.87
2018-04-10T04:04:56.680Z,77.69
2018-04-10T04:05:56.659Z,78.26
2018-04-10T04:06:56.636Z,78.16
2018-04-10T04:07:56.616Z,78.26
2018-04-10T04:08:56.380Z,78.03
2018-04-10T04:09:56.572Z,78.22
2018-04-10T04:10:56.558Z,78.45
2018-04-10T04:11:56.532Z,78.22
2018-04-10T04:12:56.513Z,78.7
2018-04-10T04:13:56.492Z,78.51
2018-04-10T04:14:56.302Z,78.31
2018-04-10T04:15:56.642Z,78.89
2018-04-10T04:16:56.448Z,78.7
2018-04-10T04:17:56.403Z,78.51
2018-04-10T04:18:56.385Z,78.03
2018-04-10T04:19:56.366Z,78.89
2018-04-10T04:20:56.343Z,78.89
2018-04-10T04:21:56.320Z,78.89
2018-04-10T04:22:56.299Z,78.99
2018-04-10T04:23:56.278Z,78.89
2018-04-10T04:24:56.257Z,79.27
2018-04-10T04:25:55.989Z,78.99
2018-04-10T04:26:56.216Z,79.17
2018-04-10T04:27:56.194Z,79.56
2018-04-10T04:28:55.927Z,79.36
2018-04-10T04:29:56.154Z,79.36
2018-04-10T04:30:55.885Z,79.46
2018-04-10T04:31:56.112Z,79.46
2018-04-10T04:32:56.098Z,79.17
2018-04-10T04:33:55.821Z,78.6
2018-04-10T04:34:56.047Z,79.08
2018-04-10T04:35:56.028Z,79.46
2018-04-10T04:36:56.004Z,79.46
2018-04-10T04:37:55.737Z,79.08
2018-04-10T04:38:55.963Z,79.27
2018-04-10T04:39:55.939Z,79.17
2018-04-10T04:40:55.920Z,79.75
2018-04-10T04:41:55.895Z,79.65
2018-04-10T04:42:55.876Z,79.36
2018-04-10T04:43:55.857Z,79.36
2018-04-10T04:44:55.831Z,79.36
2018-04-10T04:45:55.810Z,79.56
2018-04-10T04:46:55.791Z,79.56
2018-04-10T04:47:55.524Z,79.65
2018-04-10T04:48:55.503Z,79.85
2018-04-10T04:49:55.480Z,79.94
2018-04-10T04:50:55.707Z,80.04
2018-04-10T04:51:55.685Z,80.04
2018-04-10T04:52:55.668Z,80.22
2018-04-10T04:53:55.641Z,80.32
2018-04-10T04:54:55.618Z,80.32
2018-04-10T04:55:55.602Z,80.41
2018-04-10T04:56:55.578Z,80.22
2018-04-10T04:57:55.557Z,80.8
2018-04-10T04:58:55.536Z,80.13
2018-04-10T04:59:55.267Z,80.04
2018-04-10T05:00:55.492Z,80.61
2018-04-10T05:01:55.223Z,80.61
2018-04-10T05:02:55.450Z,80.41
2018-04-10T05:03:55.183Z,80.7
2018-04-10T05:04:55.405Z,80.41
2018-04-10T05:05:55.382Z,80.61
2018-04-10T05:06:55.366Z,80.99
2018-04-10T05:07:55.098Z,80.41
2018-04-10T05:08:55.318Z,80.9
2018-04-10T05:09:55.300Z,80.7
2018-04-10T05:10:55.278Z,80.7
2018-04-10T05:11:55.255Z,80.8
2018-04-10T05:12:55.238Z,80.7
2018-04-10T05:13:55.215Z,80.61
2018-04-10T05:14:55.196Z,80.51
2018-04-10T05:15:55.169Z,80.61
2018-04-10T05:16:55.148Z,80.61
2018-04-10T05:17:55.135Z,80.41
2018-04-10T05:18:55.107Z,80.9
2018-04-10T05:19:55.085Z,80.8
2018-04-10T05:20:55.064Z,80.51
2018-04-10T05:21:55.044Z,80.7
2018-04-10T05:22:55.058Z,80.9
2018-04-10T05:23:54.754Z,80.51
2018-04-10T05:24:54.983Z,80.9
2018-04-10T05:25:54.961Z,80.9
2018-04-10T05:26:54.957Z,80.51
2018-04-10T05:27:54.918Z,80.7
2018-04-10T05:28:54.906Z,80.99
2018-04-10T05:29:54.903Z,80.8
2018-04-10T05:30:54.607Z,80.41
2018-04-10T05:31:54.832Z,80.61
2018-04-10T05:32:54.566Z,80.32
2018-04-10T05:33:54.552Z,80.7
2018-04-10T05:34:54.773Z,79.98
2018-04-10T05:35:54.748Z,79.85
2018-04-10T05:36:54.728Z,80.55
2018-04-10T05:37:54.710Z,80.17
2018-04-10T05:38:54.686Z,80.27
2018-04-10T05:39:54.666Z,80.36
2018-04-10T05:40:54.647Z,80.17
2018-04-10T05:41:54.628Z,80.17
2018-04-10T05:42:54.611Z,79.69
2018-04-10T05:43:54.588Z,80.07
2018-04-10T05:44:54.563Z,79.79
2018-04-10T05:45:54.300Z,79.5
2018-04-10T05:46:54.523Z,79.22
2018-04-10T05:47:54.502Z,79.5
2018-04-10T05:48:54.481Z,79.79
2018-04-10T05:49:54.464Z,78.74
2018-04-10T05:50:54.441Z,79.41
2018-04-10T05:51:54.420Z,79.31
2018-04-10T05:52:54.403Z,79.22
2018-04-10T05:53:54.392Z,78.55
2018-04-10T05:54:54.358Z,79.25
2018-04-10T05:55:54.360Z,79.5
2018-04-10T05:56:54.318Z,78.78
2018-04-10T05:57:54.299Z,78.78
2018-04-10T05:58:54.279Z,78.68
2018-04-10T05:59:54.012Z,78.97
2018-04-10T06:00:54.238Z,78.87
2018-04-10T06:01:54.220Z,78.49
2018-04-10T06:02:54.198Z,78.11
2018-04-10T06:03:53.937Z,78.3
2018-04-10T06:04:53.911Z,78.3
2018-04-10T06:05:54.136Z,77.82
2018-04-10T06:06:54.115Z,78.01
2018-04-10T06:07:54.100Z,78.11
2018-04-10T06:08:53.831Z,77.63
2018-04-10T06:09:54.146Z,77.34
2018-04-10T06:10:54.036Z,77.72
2018-04-10T06:11:54.026Z,77.48
2018-04-10T06:12:54.001Z,77
2018-04-10T06:13:53.986Z,76.81
2018-04-10T06:14:53.964Z,76.81
2018-04-10T06:15:54.007Z,76.62
2018-04-10T06:16:53.920Z,76.42
2018-04-10T06:17:53.903Z,76.71
2018-04-10T06:18:53.890Z,76.42
2018-04-10T06:19:53.623Z,76.14
2018-04-10T06:20:53.845Z,75.85
2018-04-10T06:21:53.579Z,75.76
2018-04-10T06:22:53.808Z,75.09
2018-04-10T06:23:53.791Z,75.37
2018-04-10T06:24:53.767Z,74.8
2018-04-10T06:25:53.748Z,75.02
2018-04-10T06:26:53.732Z,74.65
2018-04-10T06:27:53.714Z,75.02
2018-04-10T06:28:53.735Z,74.74
2018-04-10T06:29:53.671Z,74.74
2018-04-10T06:30:53.690Z,74.16
2018-04-10T06:31:53.637Z,73.5
2018-04-10T06:32:53.617Z,73.79
2018-04-10T06:33:53.600Z,73.88
2018-04-10T06:34:53.584Z,73.4
2018-04-10T06:35:53.575Z,73.15
2018-04-10T06:36:53.546Z,72.86
2018-04-10T06:37:53.528Z,72.96
2018-04-10T06:38:53.509Z,72.48
2018-04-10T06:39:53.243Z,72.19
2018-04-10T06:40:53.477Z,71.14
2018-04-10T06:41:54.081Z,71.75
2018-04-10T06:42:53.439Z,71.17
2018-04-10T06:43:53.421Z,70.98
2018-04-10T06:44:53.405Z,70.98
2018-04-10T06:45:53.387Z,70.41
2018-04-10T06:46:53.370Z,70.31
2018-04-10T06:47:53.104Z,70.31
2018-04-10T06:48:53.332Z,70.31
2018-04-10T06:49:53.315Z,69.83
2018-04-10T06:50:53.056Z,69.64
2018-04-10T06:51:53.282Z,69.45
2018-04-10T06:52:53.265Z,68.91
2018-04-10T06:53:53.244Z,68.72
2018-04-10T06:54:53.228Z,68.81
2018-04-10T06:55:53.251Z,68.33
2018-04-10T06:56:53.200Z,68.14
2018-04-10T06:57:53.182Z,67.85
2018-04-10T06:58:53.172Z,67.28
2018-04-10T06:59:53.200Z,67.57
2018-04-10T07:00:53.128Z,67.47
2018-04-10T07:01:53.112Z,67.18
2018-04-10T07:02:53.882Z,67.18
2018-04-10T07:03:53.333Z,67.18
2018-04-10T07:04:53.205Z,66.8
2018-04-10T07:05:54.137Z,66.32
2018-04-10T07:06:53.482Z,66.71
2018-04-10T07:07:53.633Z,66.51
2018-04-10T07:08:53.000Z,66.71
2018-04-10T07:09:52.988Z,65.75
2018-04-10T07:10:53.090Z,65.84
2018-04-10T07:11:54.040Z,66.03
2018-04-10T07:12:53.439Z,66.26
2018-04-10T07:13:53.517Z,65.49
2018-04-10T07:14:52.904Z,65.49
2018-04-10T07:15:52.885Z,65.49
2018-04-10T07:16:52.872Z,65.3
2018-04-10T07:17:52.855Z,65.01
2018-04-10T07:18:52.901Z,65.39
2018-04-10T07:19:52.817Z,64.92
2018-04-10T07:20:52.849Z,65.11
2018-04-10T07:21:52.796Z,65.11
2018-04-10T07:22:52.899Z,65.01
2018-04-10T07:23:53.514Z,64.53
2018-04-10T07:24:52.942Z,64.43
2018-04-10T07:25:52.607Z,64.63
2018-04-10T07:26:53.053Z,64.63
2018-04-10T07:27:53.533Z,64.34
2018-04-10T07:28:53.759Z,63.86
2018-04-10T07:29:53.939Z,63.79
2018-04-10T07:30:53.415Z,63.89
2018-04-10T07:31:53.375Z,63.03
2018-04-10T07:32:52.628Z,63.51
2018-04-10T07:33:53.466Z,63.32
2018-04-10T07:34:53.588Z,63.48
2018-04-10T07:35:53.085Z,63.42
2018-04-10T07:36:53.645Z,63.12
2018-04-10T07:37:53.367Z,63.12
2018-04-10T07:38:53.180Z,63.32
2018-04-10T07:39:52.466Z,62.84
2018-04-10T07:40:53.300Z,62.84
2018-04-10T07:41:52.717Z,62.65
2018-04-10T07:42:52.847Z,62.36
2018-04-10T07:43:52.341Z,62.26
2018-04-10T07:44:52.504Z,62.36
2018-04-10T07:45:52.656Z,61.88
2018-04-10T07:46:53.160Z,61.43
2018-04-10T07:47:52.744Z,61.52
2018-04-10T07:48:52.690Z,61.05
2018-04-10T07:49:52.359Z,60.85
2018-04-10T07:50:52.236Z,60.57
2018-04-10T07:51:52.591Z,60.5
2018-04-10T07:52:53.006Z,60.21
2018-04-10T07:53:52.153Z,60.21
2018-04-10T07:54:53.162Z,59.64
2018-04-10T07:55:52.075Z,59.73
2018-04-10T07:56:53.117Z,59.73
2018-04-10T07:57:52.465Z,59.64
2018-04-10T07:58:52.579Z,59.34
2018-04-10T07:59:52.486Z,59.06
2018-04-10T08:00:52.371Z,58.42
2018-04-10T08:01:52.375Z,58.8
2018-04-10T08:02:52.713Z,58.7
2018-04-10T08:03:52.566Z,58.03
2018-04-10T08:04:52.904Z,57.93
2018-04-10T08:05:52.231Z,58.03
2018-04-10T08:06:52.167Z,57.93
2018-04-10T08:07:52.685Z,57.55
2018-04-10T08:08:52.142Z,57.65
2018-04-10T08:09:52.075Z,57.36
2018-04-10T08:10:52.055Z,57.36
2018-04-10T08:11:52.045Z,57.45
2018-04-10T08:12:52.031Z,57.55
2018-04-10T08:13:52.017Z,57.07
2018-04-10T08:14:52.152Z,56.4
2018-04-10T08:15:51.995Z,56.46
2018-04-10T08:16:51.997Z,56.37
2018-04-10T08:17:52.006Z,56.66
2018-04-10T08:18:51.949Z,55.89
2018-04-10T08:19:51.931Z,55.91
2018-04-10T08:20:51.672Z,56.27
2018-04-10T08:21:51.907Z,56.11
2018-04-10T08:22:52.148Z,55.24
2018-04-10T08:23:51.881Z,55.53
2018-04-10T08:24:52.112Z,55.44
2018-04-10T08:25:51.858Z,55.91
2018-04-10T08:26:51.884Z,54.96
2018-04-10T08:27:51.960Z,54.86
2018-04-10T08:28:51.562Z,54.67
2018-04-10T08:29:51.549Z,54.47
2018-04-10T08:30:51.785Z,54.57
2018-04-10T08:31:51.771Z,54.47
2018-04-10T08:32:51.507Z,54.12
2018-04-10T08:33:51.744Z,54.22
2018-04-10T08:34:51.737Z,53.92
2018-04-10T08:35:51.716Z,54.28
2018-04-10T08:36:51.702Z,53.42
2018-04-10T08:37:51.468Z,53.7
2018-04-10T08:38:51.430Z,53.8
2018-04-10T08:39:51.665Z,53.32
2018-04-10T08:40:51.647Z,53.32
2018-04-10T08:41:51.655Z,53.13
2018-04-10T08:42:51.618Z,53.52
2018-04-10T08:43:51.359Z,54
2018-04-10T08:44:51.592Z,53.52
2018-04-10T08:45:51.578Z,53.52
2018-04-10T08:46:51.564Z,54.06
2018-04-10T08:47:51.556Z,53.78
2018-04-10T08:48:51.535Z,54.06
2018-04-10T08:49:51.523Z,54.09
2018-04-10T08:50:51.505Z,53.39
2018-04-10T08:51:51.497Z,53.3
2018-04-10T08:52:51.542Z,53.3
2018-04-10T08:53:51.462Z,53.03
2018-04-10T08:54:51.450Z,53.32
2018-04-10T08:55:51.439Z,52.65
2018-04-10T08:56:51.425Z,52.84
2018-04-10T08:57:51.410Z,52.75
2018-04-10T08:58:51.396Z,53.03
2018-04-10T08:59:51.132Z,53.03
2018-04-10T09:00:51.370Z,52.75
2018-04-10T09:01:51.355Z,53.16
2018-04-10T09:02:51.095Z,52.58
2018-04-10T09:03:51.326Z,52.39
2018-04-10T09:04:51.317Z,52.1
2018-04-10T09:05:51.302Z,52
2018-04-10T09:06:51.293Z,51.62
2018-04-10T09:07:51.340Z,51.72
2018-04-10T09:08:51.262Z,51.91
2018-04-10T09:09:51.246Z,51.43
2018-04-10T09:10:51.241Z,51.43
2018-04-10T09:11:51.225Z,51.23
2018-04-10T09:12:51.212Z,51.43
2018-04-10T09:13:51.517Z,51.14
2018-04-10T09:14:51.195Z,50.76
2018-04-10T09:15:51.169Z,51.23
2018-04-10T09:16:51.161Z,51.43
2018-04-10T09:17:51.152Z,50.85
2018-04-10T09:18:51.131Z,50.95
2018-04-10T09:19:50.870Z,50.68
2018-04-10T09:20:51.107Z,50.59
2018-04-10T09:21:51.144Z,50.97
2018-04-10T09:22:51.128Z,50.4
2018-04-10T09:23:51.084Z,50.3
2018-04-10T09:24:51.057Z,50.2
2018-04-10T09:25:51.044Z,50.4
2018-04-10T09:26:51.029Z,50.01
2018-04-10T09:27:51.018Z,50.01
2018-04-10T09:28:51.006Z,49.82
2018-04-10T09:29:50.990Z,50.01
2018-04-10T09:30:50.729Z,49.91
2018-04-10T09:31:50.965Z,50.1
2018-04-10T09:32:50.713Z,50.01
2018-04-10T09:33:50.938Z,50.4
2018-04-10T09:34:50.927Z,50.3
2018-04-10T09:35:50.668Z,50.3
2018-04-10T09:36:50.903Z,49.91
2018-04-10T09:37:50.887Z,50.3
2018-04-10T09:38:50.874Z,50.3
2018-04-10T09:39:50.861Z,50.2
2018-04-10T09:40:50.848Z,50.4
2018-04-10T09:41:50.588Z,50.3
2018-04-10T09:42:50.821Z,50.2
2018-04-10T09:43:50.857Z,50.01
2018-04-10T09:44:50.794Z,50.1
2018-04-10T09:45:50.782Z,50.1
2018-04-10T09:46:50.774Z,50.3
2018-04-10T09:47:50.507Z,50.3
2018-04-10T09:48:50.743Z,49.82
2018-04-10T09:49:50.729Z,49.91
2018-04-10T09:50:50.715Z,49.43
2018-04-10T09:51:50.702Z,49.15
2018-04-10T09:52:50.693Z,48.76
2018-04-10T09:53:50.676Z,48.66
2018-04-10T09:54:50.663Z,47.99
2018-04-10T09:55:50.648Z,47.89
2018-04-10T09:56:50.637Z,47.41
2018-04-10T09:57:50.621Z,47.61
2018-04-10T09:58:50.612Z,47.8
2018-04-10T09:59:50.345Z,47.41
2018-04-10T10:00:50.334Z,47.31
2018-04-10T10:01:50.569Z,47.41
2018-04-10T10:02:50.308Z,47.44
2018-04-10T10:03:50.551Z,47.24
2018-04-10T10:04:50.528Z,46.93
2018-04-10T10:05:50.269Z,46.74
2018-04-10T10:06:50.506Z,46.95
2018-04-10T10:07:50.497Z,46.19
2018-04-10T10:08:50.481Z,46.19
2018-04-10T10:09:50.466Z,45.42
2018-04-10T10:10:50.456Z,45.51
2018-04-10T10:11:50.451Z,45.03
2018-04-10T10:12:50.431Z,45.42
2018-04-10T10:13:50.420Z,45.32
2018-04-10T10:14:50.432Z,44.84
2018-04-10T10:15:50.392Z,44.93
2018-04-10T10:16:50.131Z,45.22
2018-04-10T10:17:50.364Z,44.84
2018-04-10T10:18:50.353Z,45.22
2018-04-10T10:19:50.369Z,44.17
2018-04-10T10:20:50.330Z,44.45
2018-04-10T10:21:50.314Z,44.07
2018-04-10T10:22:50.305Z,43.97
2018-04-10T10:23:50.045Z,43.97
2018-04-10T10:24:50.279Z,43.59
2018-04-10T10:25:50.267Z,43.68
2018-04-10T10:26:50.252Z,43.68
2018-04-10T10:27:50.240Z,43.78
2018-04-10T10:28:50.228Z,43.4
2018-04-10T10:29:50.217Z,43.4
2018-04-10T10:30:50.202Z,43.41
2018-04-10T10:31:50.190Z,43.59
2018-04-10T10:32:49.928Z,43.9
2018-04-10T10:33:50.165Z,43.8
2018-04-10T10:34:50.152Z,43.9
2018-04-10T10:35:50.145Z,43.71
2018-04-10T10:36:49.896Z,43.9
2018-04-10T10:37:50.112Z,43.71
2018-04-10T10:38:50.162Z,43.8
2018-04-10T10:39:50.093Z,43.51
2018-04-10T10:40:50.084Z,43.23
2018-04-10T10:41:49.817Z,43.23
2018-04-10T10:42:50.055Z,43.41
2018-04-10T10:43:50.042Z,43.23
2018-04-10T10:44:50.509Z,43.03
2018-04-10T10:45:49.765Z,42.74
2018-04-10T10:46:50.000Z,42.74
2018-04-10T10:47:49.988Z,42.93
2018-04-10T10:48:49.975Z,42.46
2018-04-10T10:49:49.960Z,42.46
2018-04-10T10:50:49.697Z,42.65
2018-04-10T10:51:49.933Z,43.03
2018-04-10T10:52:49.918Z,42.93
2018-04-10T10:53:49.904Z,42.84
2018-04-10T10:54:49.890Z,42.93
2018-04-10T10:55:49.879Z,42.84
2018-04-10T10:56:49.616Z,42.74
2018-04-10T10:57:49.849Z,43.03
2018-04-10T10:58:49.835Z,43.13
2018-04-10T10:59:49.825Z,43.03
2018-04-10T11:00:49.812Z,43.03
2018-04-10T11:01:49.793Z,43.32
2018-04-10T11:02:49.783Z,43.41
2018-04-10T11:03:49.767Z,43.13
2018-04-10T11:04:50.066Z,43.41
2018-04-10T11:05:49.739Z,43.51
2018-04-10T11:06:49.732Z,43.51
2018-04-10T11:07:49.762Z,43.44
2018-04-10T11:08:49.702Z,43.44
2018-04-10T11:09:49.440Z,43.44
2018-04-10T11:10:49.670Z,43.44
2018-04-10T11:11:49.658Z,43.05
2018-04-10T11:12:50.104Z,43.34
2018-04-10T11:13:49.388Z,43.05
2018-04-10T11:14:49.464Z,42.96
2018-04-10T11:15:49.610Z,43.15
2018-04-10T11:16:49.593Z,42.57
2018-04-10T11:17:49.585Z,42.47
2018-04-10T11:18:49.318Z,42.47
2018-04-10T11:19:49.304Z,42.19
2018-04-10T11:20:49.537Z,42.47
2018-04-10T11:21:49.467Z,42.38
2018-04-10T11:22:49.509Z,42.28
2018-04-10T11:23:49.498Z,42.28
2018-04-10T11:24:49.486Z,42.21
2018-04-10T11:25:49.478Z,42.3
2018-04-10T11:26:49.459Z,41.82
2018-04-10T11:27:49.444Z,41.82
2018-04-10T11:28:49.434Z,41.82
2018-04-10T11:29:49.422Z,42.02
2018-04-10T11:30:49.417Z,42.02
2018-04-10T11:31:49.393Z,41.53
2018-04-10T11:32:49.387Z,41.63
2018-04-10T11:33:49.380Z,41.72
2018-04-10T11:34:49.364Z,41.14
2018-04-10T11:35:49.346Z,41.14
2018-04-10T11:36:49.335Z,40.78
2018-04-10T11:37:49.073Z,40.69
2018-04-10T11:38:49.063Z,40.78
2018-04-10T11:39:49.296Z,40.78
2018-04-10T11:40:49.284Z,40.11
2018-04-10T11:41:49.268Z,39.82
2018-04-10T11:42:49.094Z,39.72
2018-04-10T11:43:49.249Z,39.53
2018-04-10T11:44:49.236Z,39.34
2018-04-10T11:45:49.226Z,39.43
2018-04-10T11:46:49.216Z,39.34
2018-04-10T11:47:49.198Z,38.95
2018-04-10T11:48:49.188Z,38.85
2018-04-10T11:49:49.174Z,38.76
2018-04-10T11:50:49.168Z,38.85
2018-04-10T11:51:49.371Z,38.85
2018-04-10T11:52:49.320Z,38.85
2018-04-10T11:53:49.453Z,38.85
2018-04-10T11:54:49.229Z,38.85
2018-04-10T11:55:49.104Z,38.58
2018-04-10T11:56:49.078Z,38.1
2018-04-10T11:57:49.080Z,37.71
2018-04-10T11:58:49.062Z,37.62
2018-04-10T11:59:49.052Z,37.62
2018-04-10T12:00:49.036Z,37.52
2018-04-10T12:01:49.028Z,37.5
2018-04-10T12:02:49.013Z,37.6
2018-04-10T12:03:49.003Z,37.5
2018-04-10T12:04:48.991Z,37.98
2018-04-10T12:05:48.978Z,38.18
2018-04-10T12:06:48.719Z,38.28
2018-04-10T12:07:48.952Z,38.18
2018-04-10T12:08:48.942Z,38.28
2018-04-10T12:09:48.682Z,38.28
2018-04-10T12:10:48.919Z,38.37
2018-04-10T12:11:49.012Z,37.98
2018-04-10T12:12:48.647Z,37.81
2018-04-10T12:13:48.882Z,37.52
2018-04-10T12:14:49.053Z,37.13
2018-04-10T12:15:48.858Z,37.54
2018-04-10T12:16:48.846Z,36.85
2018-04-10T12:17:48.834Z,36.96
2018-04-10T12:18:48.821Z,37.06
2018-04-10T12:19:48.806Z,36.96
2018-04-10T12:20:48.801Z,36.67
2018-04-10T12:21:48.789Z,37.15
2018-04-10T12:22:48.771Z,36.94
2018-04-10T12:23:48.513Z,37.33
2018-04-10T12:24:48.751Z,37.04
2018-04-10T12:25:48.736Z,36.94
2018-04-10T12:26:48.723Z,37.23
2018-04-10T12:27:48.462Z,37.02
2018-04-10T12:28:48.698Z,37.41
2018-04-10T12:29:48.445Z,37.21
2018-04-10T12:30:48.674Z,37.5
2018-04-10T12:31:48.762Z,37.41
2018-04-10T12:32:48.647Z,37.43
2018-04-10T12:33:48.634Z,37.33
2018-04-10T12:34:48.623Z,36.75
2018-04-10T12:35:48.608Z,36.85
2018-04-10T12:36:48.601Z,36.94
2018-04-10T12:37:48.594Z,36.75
2018-04-10T12:38:48.575Z,36.85
2018-04-10T12:39:48.311Z,36.75
2018-04-10T12:40:48.546Z,36.85
2018-04-10T12:41:48.536Z,36.65
2018-04-10T12:42:48.526Z,36.75
2018-04-10T12:43:48.262Z,36.94
2018-04-10T12:44:48.497Z,36.94
2018-04-10T12:45:48.479Z,37.04
2018-04-10T12:46:48.468Z,37.33
2018-04-10T12:47:48.459Z,37.52
2018-04-10T12:48:48.445Z,37.23
2018-04-10T12:49:48.434Z,37.33
2018-04-10T12:50:48.457Z,37.52
2018-04-10T12:51:48.402Z,37.62
2018-04-10T12:52:48.389Z,37.62
2018-04-10T12:53:48.381Z,38.2
2018-04-10T12:54:48.370Z,38.1
2018-04-10T12:55:48.358Z,38.29